Kavarna, Bulgaria
Current Conditions -  °F | °C
As of 5:00 AM on Tuesday 23 Dec 2014 (Local Time) from LBWN Reporting Station
Clear Clear  
Wind Chill: 40°   Ceiling: Unl
Heat Index: 46°   Visibility: 6mi
Dew Point: 27°   Wind: 15mph
Humidity: 46%   Direction: 270°W
Pressure: 30"   Gusts: NA
Location:  43.44°N, 28.34°E
Report Text: LBWN 230200Z 27013KT CAVOK 08/M03 Q1016 NOSIG
Loading
Personal Weather Stations






























Interactive Weather Map New forecast layout! Learn more

10-Day Weather Forecast

Advertisements
Track Severe Weather on mobile